createdAt,value
2023-04-22T00:01:19.965Z,100.00
2023-04-22T00:03:47.608Z,100.00
2023-04-22T00:06:15.224Z,100.00
2023-04-22T00:08:44.527Z,100.00
2023-04-22T00:11:11.618Z,100.00
2023-04-22T00:13:38.723Z,100.00
2023-04-22T00:16:06.188Z,100.00
2023-04-22T00:18:36.188Z,100.00
2023-04-22T00:21:04.533Z,100.00
2023-04-22T00:23:31.732Z,100.00
2023-04-22T00:25:59.050Z,100.00
2023-04-22T00:28:26.034Z,100.00
2023-04-22T00:30:53.306Z,100.00
2023-04-22T00:33:20.966Z,100.00
2023-04-22T00:35:48.174Z,100.00
2023-04-22T00:38:15.470Z,100.00
2023-04-22T00:40:43.886Z,100.00
2023-04-22T00:43:12.226Z,100.00
2023-04-22T00:45:39.641Z,100.00
2023-04-22T00:48:07.568Z,100.00
2023-04-22T00:50:35.098Z,100.00
2023-04-22T00:53:02.819Z,100.00
2023-04-22T00:55:30.116Z,100.00
2023-04-22T00:58:00.857Z,100.00
2023-04-22T01:00:28.756Z,100.00
2023-04-22T01:02:56.184Z,100.00
2023-04-22T01:05:25.175Z,100.00
2023-04-22T01:07:52.274Z,100.00
2023-04-22T01:10:20.323Z,100.00
2023-04-22T01:12:47.158Z,100.00
2023-04-22T01:15:14.528Z,100.00
2023-04-22T01:17:41.642Z,100.00
2023-04-22T01:20:12.142Z,100.00
2023-04-22T01:22:42.692Z,100.00
2023-04-22T01:25:11.465Z,100.00
2023-04-22T01:27:39.568Z,100.00
2023-04-22T01:30:07.671Z,100.00
2023-04-22T01:32:35.223Z,100.00
2023-04-22T01:35:02.856Z,100.00
2023-04-22T01:37:30.923Z,100.00
2023-04-22T01:39:59.275Z,100.00
2023-04-22T01:42:26.567Z,100.00
2023-04-22T01:44:53.644Z,100.00
2023-04-22T01:47:20.751Z,100.00
2023-04-22T01:49:47.892Z,100.00
2023-04-22T01:52:15.103Z,100.00
2023-04-22T01:54:42.421Z,100.00
2023-04-22T01:57:13.967Z,100.00
2023-04-22T01:59:42.886Z,100.00
2023-04-22T02:02:10.663Z,100.00
2023-04-22T02:04:37.743Z,100.00
2023-04-22T02:07:05.223Z,100.00
2023-04-22T02:09:33.643Z,100.00
2023-04-22T02:12:01.513Z,100.00
2023-04-22T02:14:28.307Z,100.00
2023-04-22T02:16:55.220Z,100.00
2023-04-22T02:19:22.250Z,100.00
2023-04-22T02:21:49.902Z,100.00
2023-04-22T02:24:16.701Z,100.00
2023-04-22T02:26:43.527Z,100.00
2023-04-22T02:29:11.205Z,100.00
2023-04-22T02:31:38.405Z,100.00
2023-04-22T02:34:07.318Z,100.00
2023-04-22T02:36:34.925Z,100.00
2023-04-22T02:39:06.180Z,100.00
2023-04-22T02:41:33.262Z,100.00
2023-04-22T02:44:01.104Z,100.00
2023-04-22T02:46:27.924Z,100.00
2023-04-22T02:48:54.879Z,100.00
2023-04-22T02:51:21.993Z,100.00
2023-04-22T02:53:50.532Z,100.00
2023-04-22T02:56:17.641Z,100.00
2023-04-22T02:58:44.615Z,100.00
2023-04-22T03:01:12.271Z,100.00
2023-04-22T03:03:39.758Z,100.00
2023-04-22T03:06:07.167Z,100.00
2023-04-22T03:08:33.787Z,100.00
2023-04-22T03:11:00.681Z,100.00
2023-04-22T03:13:27.654Z,100.00
2023-04-22T03:15:54.498Z,100.00
2023-04-22T03:18:21.602Z,100.00
2023-04-22T03:20:49.950Z,100.00
2023-04-22T03:23:17.073Z,100.00
2023-04-22T03:25:43.835Z,100.00
2023-04-22T03:28:10.827Z,100.00
2023-04-22T03:30:37.976Z,100.00
2023-04-22T03:33:05.418Z,100.00
2023-04-22T03:35:32.100Z,100.00
2023-04-22T03:37:59.085Z,100.00
2023-04-22T03:40:26.419Z,100.00
2023-04-22T03:42:53.928Z,100.00
2023-04-22T03:45:22.768Z,100.00
2023-04-22T03:47:49.994Z,100.00
2023-04-22T03:50:17.582Z,100.00
2023-04-22T03:52:45.428Z,100.00
2023-04-22T03:55:13.381Z,100.00
2023-04-22T03:57:41.200Z,100.00
2023-04-22T04:00:09.341Z,100.00
2023-04-22T04:02:36.715Z,100.00
2023-04-22T04:05:09.107Z,100.00
2023-04-22T04:07:37.732Z,100.00
2023-04-22T04:10:08.195Z,100.00
2023-04-22T04:12:35.138Z,100.00
2023-04-22T04:15:02.217Z,100.00
2023-04-22T04:17:30.537Z,100.00
2023-04-22T04:19:57.680Z,100.00
2023-04-22T04:22:24.906Z,100.00
2023-04-22T04:24:55.834Z,100.00
2023-04-22T04:27:24.490Z,100.00
2023-04-22T04:29:52.591Z,100.00
2023-04-22T04:32:20.289Z,100.00
2023-04-22T04:34:47.788Z,100.00
2023-04-22T04:37:14.895Z,100.00
2023-04-22T04:39:42.261Z,100.00
2023-04-22T04:42:09.873Z,100.00
2023-04-22T04:44:36.956Z,100.00
2023-04-22T04:49:31.570Z,100.00
2023-04-22T04:51:58.678Z,100.00
2023-04-22T04:54:25.673Z,100.00
2023-04-22T04:56:52.378Z,100.00
2023-04-22T04:59:20.105Z,100.00
2023-04-22T05:01:47.099Z,100.00
2023-04-22T05:04:14.374Z,100.00
2023-04-22T05:06:41.430Z,100.00
2023-04-22T05:09:08.852Z,100.00
2023-04-22T05:11:36.026Z,100.00
2023-04-22T05:14:03.319Z,100.00
2023-04-22T05:16:32.323Z,100.00
2023-04-22T05:18:59.500Z,100.00
2023-04-22T05:21:26.210Z,100.00
2023-04-22T05:23:53.675Z,100.00
2023-04-22T05:26:21.220Z,100.00
2023-04-22T05:28:48.307Z,100.00
2023-04-22T05:31:15.149Z,100.00
2023-04-22T05:33:42.864Z,100.00
2023-04-22T05:36:10.193Z,100.00
2023-04-22T05:38:37.236Z,100.00
2023-04-22T05:41:04.562Z,100.00
2023-04-22T05:43:31.480Z,100.00
2023-04-22T05:45:58.799Z,100.00
2023-04-22T05:48:26.199Z,100.00
2023-04-22T05:50:54.441Z,100.00
2023-04-22T05:53:21.469Z,100.00
2023-04-22T05:55:48.445Z,100.00
2023-04-22T05:58:15.822Z,100.00
2023-04-22T06:00:42.791Z,100.00
2023-04-22T06:03:10.390Z,100.00
2023-04-22T06:05:37.715Z,100.00
2023-04-22T06:08:04.687Z,100.00
2023-04-22T06:10:31.646Z,100.00
2023-04-22T06:12:58.968Z,100.00
2023-04-22T06:15:26.164Z,100.00
2023-04-22T06:17:54.210Z,100.00
2023-04-22T06:20:21.446Z,100.00
2023-04-22T06:22:48.304Z,100.00
2023-04-22T06:25:15.540Z,100.00
2023-04-22T06:27:43.609Z,100.00
2023-04-22T06:30:11.521Z,100.00
2023-04-22T06:32:38.681Z,100.00
2023-04-22T06:35:06.147Z,100.00
2023-04-22T06:37:33.626Z,100.00
2023-04-22T06:40:00.887Z,100.00
2023-04-22T06:42:28.258Z,100.00
2023-04-22T06:44:55.334Z,100.00
2023-04-22T06:47:22.476Z,100.00
2023-04-22T06:49:50.352Z,100.00
2023-04-22T06:52:17.515Z,100.00
2023-04-22T06:54:44.794Z,100.00
2023-04-22T06:57:11.563Z,99.76
2023-04-22T06:59:38.564Z,99.10
2023-04-22T07:02:06.077Z,99.01
2023-04-22T07:04:33.240Z,97.89
2023-04-22T07:07:00.415Z,96.63
2023-04-22T07:09:27.320Z,95.20
2023-04-22T07:11:54.546Z,96.07
2023-04-22T07:14:21.187Z,96.28
2023-04-22T07:16:48.852Z,95.88
2023-04-22T07:19:15.913Z,95.04
2023-04-22T07:21:42.716Z,94.04
2023-04-22T07:24:12.183Z,90.86
2023-04-22T07:26:43.354Z,90.11
2023-04-22T07:29:12.850Z,88.34
2023-04-22T07:31:39.742Z,88.60
2023-04-22T07:34:06.959Z,89.21
2023-04-22T07:36:34.555Z,86.85
2023-04-22T07:39:01.407Z,86.75
2023-04-22T07:41:28.385Z,87.18
2023-04-22T07:43:55.438Z,84.12
2023-04-22T07:46:22.718Z,83.55
2023-04-22T07:48:50.623Z,83.86
2023-04-22T07:51:17.515Z,83.58
2023-04-22T07:53:44.585Z,83.64
2023-04-22T07:56:11.507Z,82.12
2023-04-22T07:58:38.692Z,82.13
2023-04-22T08:01:05.589Z,80.63
2023-04-22T08:03:33.149Z,80.67
2023-04-22T08:06:00.821Z,79.56
2023-04-22T08:08:27.665Z,75.67
2023-04-22T08:10:54.720Z,76.23
2023-04-22T08:13:21.584Z,76.67
2023-04-22T08:15:48.640Z,75.53
2023-04-22T08:21:10.021Z,72.73
2023-04-22T08:23:37.166Z,73.00
2023-04-22T08:26:04.503Z,72.61
2023-04-22T08:28:31.794Z,72.52
2023-04-22T08:30:59.015Z,72.35
2023-04-22T08:33:27.296Z,71.65
2023-04-22T08:35:54.412Z,70.45
2023-04-22T08:38:21.536Z,70.61
2023-04-22T08:40:48.971Z,70.08
2023-04-22T08:43:16.046Z,68.62
2023-04-22T08:45:44.948Z,68.82
2023-04-22T08:48:13.354Z,68.90
2023-04-22T08:50:41.335Z,68.57
2023-04-22T08:53:08.500Z,68.06
2023-04-22T08:55:36.440Z,67.21
2023-04-22T08:58:06.031Z,66.89
2023-04-22T09:00:34.774Z,65.55
2023-04-22T09:03:03.366Z,64.09
2023-04-22T09:05:33.880Z,64.25
2023-04-22T09:08:02.209Z,63.88
2023-04-22T09:10:31.827Z,65.29
2023-04-22T09:13:00.730Z,64.30
2023-04-22T09:15:29.910Z,62.67
2023-04-22T09:17:58.473Z,62.61
2023-04-22T09:20:29.669Z,63.09
2023-04-22T09:22:58.003Z,63.14
2023-04-22T09:25:28.526Z,62.54
2023-04-22T09:27:57.367Z,61.51
2023-04-22T09:30:45.852Z,61.80
2023-04-22T09:33:17.450Z,62.41
2023-04-22T09:35:44.999Z,62.22
2023-04-22T09:38:12.768Z,61.59
2023-04-22T09:40:44.120Z,61.85
2023-04-22T09:43:11.680Z,60.08
2023-04-22T09:45:41.363Z,59.92
2023-04-22T09:48:09.469Z,60.55
2023-04-22T09:50:38.476Z,60.06
2023-04-22T09:56:54.545Z,58.37
2023-04-22T09:59:22.155Z,56.44
2023-04-22T10:01:50.996Z,57.93
2023-04-22T10:04:21.226Z,56.78
2023-04-22T10:06:48.726Z,56.64
2023-04-22T10:09:19.558Z,56.88
2023-04-22T10:11:47.685Z,56.62
2023-04-22T10:14:14.886Z,56.63
2023-04-22T10:16:44.878Z,56.86
2023-04-22T10:19:17.159Z,56.35
2023-04-22T10:21:46.908Z,56.12
2023-04-22T10:24:18.551Z,56.01
2023-04-22T10:26:57.635Z,56.11
2023-04-22T10:29:26.476Z,57.26
2023-04-22T10:32:25.015Z,56.35
2023-04-22T10:35:08.243Z,56.03
2023-04-22T10:37:35.935Z,56.48
2023-04-22T10:40:17.336Z,56.27
2023-04-22T10:42:51.299Z,56.39
2023-04-22T10:45:18.258Z,55.86
2023-04-22T10:47:45.640Z,56.17
2023-04-22T10:50:25.878Z,56.95
2023-04-22T10:52:57.023Z,58.02
2023-04-22T10:55:25.236Z,57.80
2023-04-22T10:57:54.415Z,57.17
2023-04-22T11:00:33.161Z,57.75
2023-04-22T11:03:12.377Z,56.52
2023-04-22T11:05:40.001Z,54.97
2023-04-22T11:08:20.235Z,54.50
2023-04-22T11:10:50.318Z,54.02
2023-04-22T11:13:21.881Z,54.14
2023-04-22T11:15:51.196Z,54.88
2023-04-22T11:18:27.342Z,51.50
2023-04-22T11:20:54.603Z,52.69
2023-04-22T11:23:27.994Z,52.47
2023-04-22T11:25:58.678Z,51.23
2023-04-22T11:28:26.308Z,51.19
2023-04-22T11:30:53.922Z,49.79
2023-04-22T11:33:21.127Z,49.56
2023-04-22T11:35:49.666Z,49.00
2023-04-22T11:38:16.410Z,48.36
2023-04-22T11:40:46.844Z,49.64
2023-04-22T11:43:14.830Z,48.58
2023-04-22T11:45:42.217Z,48.55
2023-04-22T11:48:11.160Z,48.48
2023-04-22T11:50:40.716Z,47.70
2023-04-22T11:53:15.352Z,48.69
2023-04-22T11:55:44.378Z,49.00
2023-04-22T11:58:16.554Z,48.05
2023-04-22T12:00:44.926Z,47.47
2023-04-22T12:03:20.463Z,48.07
2023-04-22T12:05:59.070Z,49.04
2023-04-22T12:08:35.643Z,49.12
2023-04-22T12:11:05.181Z,49.71
2023-04-22T12:13:41.597Z,49.73
2023-04-22T12:16:19.817Z,49.39
2023-04-22T12:18:54.866Z,50.34
2023-04-22T12:21:24.609Z,49.02
2023-04-22T12:23:56.267Z,49.75
2023-04-22T12:26:26.877Z,50.35
2023-04-22T12:28:57.705Z,50.22
2023-04-22T12:31:25.279Z,50.53
2023-04-22T12:33:53.636Z,49.76
2023-04-22T12:36:21.019Z,51.68
2023-04-22T12:38:48.398Z,50.50
2023-04-22T12:41:16.495Z,50.68
2023-04-22T12:43:43.153Z,49.51
2023-04-22T12:46:10.622Z,49.45
2023-04-22T12:48:37.997Z,49.01
2023-04-22T12:51:06.937Z,48.81
2023-04-22T12:53:34.730Z,48.52
2023-04-22T12:56:01.861Z,47.89
2023-04-22T12:58:29.332Z,48.71
2023-04-22T13:00:56.692Z,48.07
2023-04-22T13:03:23.733Z,47.71
2023-04-22T13:05:51.122Z,45.74
2023-04-22T13:08:18.361Z,46.46
2023-04-22T13:10:45.529Z,48.23
2023-04-22T13:15:42.702Z,49.20
2023-04-22T13:18:09.611Z,50.13
2023-04-22T13:20:37.335Z,50.10
2023-04-22T13:23:04.931Z,51.56
2023-04-22T13:25:32.322Z,51.85
2023-04-22T13:27:59.522Z,51.54
2023-04-22T13:30:26.436Z,53.29
2023-04-22T13:32:53.881Z,52.79
2023-04-22T13:35:20.766Z,53.56
2023-04-22T13:37:47.750Z,56.07
2023-04-22T13:40:15.074Z,58.30
2023-04-22T13:42:42.015Z,59.81
2023-04-22T13:45:09.367Z,63.68
2023-04-22T13:47:36.587Z,67.20
2023-04-22T13:50:05.280Z,71.30
2023-04-22T13:52:32.458Z,70.71
2023-04-22T13:55:00.206Z,73.79
2023-04-22T13:57:28.258Z,73.92
2023-04-22T13:59:55.325Z,73.23
2023-04-22T14:02:22.148Z,72.51
2023-04-22T14:04:49.017Z,75.04
2023-04-22T14:07:16.209Z,72.67
2023-04-22T14:09:43.677Z,75.18
2023-04-22T14:12:11.628Z,75.58
2023-04-22T14:14:39.202Z,74.89
2023-04-22T14:17:06.835Z,74.69
2023-04-22T14:19:36.473Z,74.84
2023-04-22T14:22:03.420Z,73.65
2023-04-22T14:24:31.249Z,75.39
2023-04-22T14:27:04.041Z,76.49
2023-04-22T14:29:31.802Z,78.73
2023-04-22T14:31:58.804Z,80.56
2023-04-22T14:34:27.390Z,82.16
2023-04-22T14:36:54.612Z,83.73
2023-04-22T14:39:21.656Z,84.56
2023-04-22T14:41:48.887Z,84.83
2023-04-22T14:44:16.060Z,84.85
2023-04-22T14:46:43.118Z,84.01
2023-04-22T14:49:09.993Z,84.41
2023-04-22T14:51:37.339Z,84.71
2023-04-22T14:54:04.652Z,84.76
2023-04-22T14:56:31.784Z,84.95
2023-04-22T14:58:58.701Z,81.50
2023-04-22T15:01:26.174Z,82.80
2023-04-22T15:03:53.314Z,79.80
2023-04-22T15:06:20.182Z,81.82
2023-04-22T15:08:47.004Z,82.94
2023-04-22T15:11:13.919Z,80.81
2023-04-22T15:13:41.157Z,81.44
2023-04-22T15:16:08.626Z,80.18
2023-04-22T15:18:36.114Z,81.15
2023-04-22T15:21:05.745Z,80.62
2023-04-22T15:23:33.086Z,81.07
2023-04-22T15:26:00.084Z,80.77
2023-04-22T15:28:27.483Z,80.61
2023-04-22T15:30:54.636Z,81.63
2023-04-22T15:33:21.610Z,81.89
2023-04-22T15:35:50.355Z,82.89
2023-04-22T15:38:17.900Z,82.15
2023-04-22T15:40:45.179Z,81.94
2023-04-22T15:43:12.050Z,82.39
2023-04-22T15:45:39.226Z,82.88
2023-04-22T15:48:06.462Z,82.86
2023-04-22T15:50:33.823Z,83.96
2023-04-22T15:53:00.758Z,83.77
2023-04-22T15:55:28.271Z,82.62
2023-04-22T15:57:55.548Z,82.99
2023-04-22T16:00:22.354Z,83.29
2023-04-22T16:02:55.708Z,83.83
2023-04-22T16:05:24.621Z,83.23
2023-04-22T16:07:53.140Z,83.28
2023-04-22T16:10:21.383Z,84.61
2023-04-22T16:12:49.159Z,84.47
2023-04-22T16:15:17.357Z,84.50
2023-04-22T16:17:44.758Z,85.31
2023-04-22T16:20:12.098Z,86.23
2023-04-22T16:22:38.972Z,87.11
2023-04-22T16:25:07.415Z,87.34
2023-04-22T16:27:34.470Z,88.60
2023-04-22T16:30:02.009Z,89.61
2023-04-22T16:32:29.065Z,91.14
2023-04-22T16:34:56.543Z,92.70
2023-04-22T16:37:23.649Z,94.81
2023-04-22T16:39:51.513Z,96.08
2023-04-22T16:42:18.820Z,96.98
2023-04-22T16:44:46.025Z,99.32
2023-04-22T16:47:13.137Z,95.62
2023-04-22T16:49:40.646Z,97.50
2023-04-22T16:52:07.667Z,98.72
2023-04-22T16:54:34.821Z,100.00
2023-04-22T16:57:04.729Z,100.00
2023-04-22T16:59:31.837Z,100.00
2023-04-22T17:01:58.924Z,100.00
2023-04-22T17:04:26.406Z,100.00
2023-04-22T17:06:53.690Z,100.00
2023-04-22T17:09:21.480Z,100.00
2023-04-22T17:11:48.678Z,100.00
2023-04-22T17:14:15.392Z,100.00
2023-04-22T17:16:42.393Z,100.00
2023-04-22T17:19:09.397Z,100.00
2023-04-22T17:21:37.349Z,100.00
2023-04-22T17:24:05.838Z,100.00
2023-04-22T17:26:33.474Z,100.00
2023-04-22T17:29:00.199Z,100.00
2023-04-22T17:31:28.301Z,100.00
2023-04-22T17:33:55.383Z,100.00
2023-04-22T17:36:22.161Z,100.00
2023-04-22T17:38:49.064Z,100.00
2023-04-22T17:41:18.263Z,100.00
2023-04-22T17:43:45.196Z,100.00
2023-04-22T17:46:12.495Z,100.00
2023-04-22T17:48:40.206Z,100.00
2023-04-22T17:51:07.487Z,100.00
2023-04-22T17:53:34.720Z,100.00
2023-04-22T17:56:01.603Z,100.00
2023-04-22T17:58:28.471Z,100.00
2023-04-22T18:00:55.399Z,100.00
2023-04-22T18:03:26.184Z,100.00
2023-04-22T18:05:55.553Z,100.00
2023-04-22T18:08:26.269Z,100.00
2023-04-22T18:10:53.411Z,100.00
2023-04-22T18:13:20.498Z,100.00
2023-04-22T18:15:47.644Z,100.00
2023-04-22T18:18:16.194Z,100.00
2023-04-22T18:20:44.599Z,100.00
2023-04-22T18:23:11.863Z,100.00
2023-04-22T18:25:39.261Z,100.00
2023-04-22T18:28:06.428Z,100.00
2023-04-22T18:30:33.225Z,100.00
2023-04-22T18:33:00.307Z,100.00
2023-04-22T18:35:27.461Z,100.00
2023-04-22T18:37:54.398Z,100.00
2023-04-22T18:40:21.654Z,100.00
2023-04-22T18:42:48.538Z,100.00
2023-04-22T18:45:16.660Z,100.00
2023-04-22T18:47:47.150Z,100.00
2023-04-22T18:50:16.800Z,100.00
2023-04-22T18:52:43.724Z,100.00
2023-04-22T18:55:11.297Z,100.00
2023-04-22T18:57:38.055Z,100.00
2023-04-22T19:00:06.675Z,100.00
2023-04-22T19:02:37.323Z,100.00
2023-04-22T19:05:06.676Z,100.00
2023-04-22T19:07:33.896Z,100.00
2023-04-22T19:10:00.516Z,100.00
2023-04-22T19:12:27.903Z,100.00
2023-04-22T19:14:54.837Z,100.00
2023-04-22T19:17:23.990Z,100.00
2023-04-22T19:19:50.729Z,100.00
2023-04-22T19:22:17.619Z,100.00
2023-04-22T19:24:45.271Z,100.00
2023-04-22T19:27:12.793Z,100.00
2023-04-22T19:29:42.095Z,100.00
2023-04-22T19:32:11.603Z,100.00
2023-04-22T19:34:38.848Z,100.00
2023-04-22T19:37:06.795Z,100.00
2023-04-22T19:39:33.676Z,100.00
2023-04-22T19:42:04.292Z,100.00
2023-04-22T19:44:31.745Z,100.00
2023-04-22T19:46:59.017Z,100.00
2023-04-22T19:49:26.965Z,100.00
2023-04-22T19:51:56.009Z,100.00
2023-04-22T19:54:27.809Z,100.00
2023-04-22T19:56:56.343Z,100.00
2023-04-22T19:59:25.029Z,100.00
2023-04-22T20:01:51.835Z,100.00
2023-04-22T20:04:19.664Z,100.00
2023-04-22T20:06:47.227Z,100.00
2023-04-22T20:09:15.644Z,100.00
2023-04-22T20:11:43.627Z,100.00
2023-04-22T20:14:11.619Z,100.00
2023-04-22T20:16:38.833Z,100.00
2023-04-22T20:19:06.544Z,100.00
2023-04-22T20:21:35.664Z,100.00
2023-04-22T20:24:06.860Z,100.00
2023-04-22T20:26:34.096Z,100.00
2023-04-22T20:29:02.867Z,100.00
2023-04-22T20:31:31.573Z,100.00
2023-04-22T20:33:59.126Z,100.00
2023-04-22T20:36:26.436Z,100.00
2023-04-22T20:38:54.991Z,100.00
2023-04-22T20:41:24.792Z,100.00
2023-04-22T20:43:52.156Z,100.00
2023-04-22T20:46:22.692Z,100.00
2023-04-22T20:48:50.129Z,100.00
2023-04-22T20:51:18.200Z,100.00
2023-04-22T20:53:45.402Z,100.00
2023-04-22T20:56:13.234Z,100.00
2023-04-22T20:58:40.597Z,100.00
2023-04-22T21:01:09.358Z,100.00
2023-04-22T21:03:40.068Z,100.00
2023-04-22T21:06:09.302Z,100.00
2023-04-22T21:08:36.825Z,100.00
2023-04-22T21:11:04.266Z,100.00
2023-04-22T21:13:32.209Z,100.00
2023-04-22T21:16:02.738Z,99.50
2023-04-22T21:18:33.017Z,100.00
2023-04-22T21:21:03.209Z,100.00
2023-04-22T21:23:31.247Z,100.00
2023-04-22T21:26:01.246Z,100.00
2023-04-22T21:28:31.303Z,100.00
2023-04-22T21:30:58.314Z,100.00
2023-04-22T21:33:25.568Z,100.00
2023-04-22T21:35:52.770Z,100.00
2023-04-22T21:38:20.156Z,100.00
2023-04-22T21:40:47.789Z,100.00
2023-04-22T21:43:15.019Z,100.00
2023-04-22T21:45:41.800Z,100.00
2023-04-22T21:48:08.909Z,100.00
2023-04-22T21:50:36.267Z,100.00
2023-04-22T21:53:03.219Z,100.00
2023-04-22T21:55:30.734Z,100.00
2023-04-22T21:57:57.882Z,100.00
2023-04-22T22:00:28.158Z,100.00
2023-04-22T22:02:55.703Z,100.00
2023-04-22T22:05:22.894Z,100.00
2023-04-22T22:07:50.346Z,100.00
2023-04-22T22:10:22.439Z,100.00
2023-04-22T22:12:50.552Z,100.00
2023-04-22T22:15:17.758Z,100.00
2023-04-22T22:17:45.732Z,100.00
2023-04-22T22:20:21.973Z,100.00
2023-04-22T22:22:49.103Z,100.00
2023-04-22T22:25:16.641Z,100.00
2023-04-22T22:27:49.216Z,100.00
2023-04-22T22:30:18.655Z,100.00
2023-04-22T22:32:46.280Z,100.00
2023-04-22T22:35:13.730Z,100.00
2023-04-22T22:37:41.076Z,100.00
2023-04-22T22:40:08.925Z,100.00
2023-04-22T22:42:36.272Z,100.00
2023-04-22T22:45:05.028Z,100.00
2023-04-22T22:47:32.447Z,100.00
2023-04-22T22:49:59.398Z,100.00
2023-04-22T22:52:27.777Z,100.00
2023-04-22T22:54:55.474Z,100.00
2023-04-22T22:57:22.582Z,100.00
2023-04-22T22:59:49.939Z,100.00
2023-04-22T23:02:17.276Z,100.00
2023-04-22T23:04:44.743Z,100.00
2023-04-22T23:07:12.362Z,100.00
2023-04-22T23:09:40.644Z,100.00
2023-04-22T23:12:08.435Z,100.00
2023-04-22T23:14:36.613Z,100.00
2023-04-22T23:17:03.670Z,100.00
2023-04-22T23:19:32.270Z,100.00
2023-04-22T23:21:59.821Z,100.00
2023-04-22T23:24:28.150Z,100.00
2023-04-22T23:26:57.295Z,100.00
2023-04-22T23:29:24.839Z,100.00
2023-04-22T23:31:52.379Z,100.00
2023-04-22T23:34:23.087Z,100.00
2023-04-22T23:36:50.584Z,100.00
2023-04-22T23:39:17.290Z,100.00
2023-04-22T23:41:44.752Z,100.00
2023-04-22T23:44:11.886Z,100.00
2023-04-22T23:46:39.026Z,100.00
2023-04-22T23:49:06.462Z,100.00
2023-04-22T23:51:34.610Z,100.00
2023-04-22T23:54:01.526Z,100.00
2023-04-22T23:56:29.021Z,100.00
2023-04-22T23:58:56.236Z,100.00
